METAR Data
IDs: Format: Raw Decoded Include TAF

Data at: 1809 UTC 23 Jan 2019

ETSI 231720Z 06004KT 3200 -SN BR FEW010 BKN020 M05/M06 Q0998 YLO FCST CANCEL